Time;durP1;ratioP1;P1;durP2;ratioP2;P2;SDS_P1;SDS_P2;PMS_P1;PMS_P2;Temp;Humidity;BMP_temperature;BMP_pressure;BME280_temperature;BME280_humidity;BME280_pressure;Samples;Min_cycle;Max_cycle;Signal;HPM_P1;HPM_P2
2021/04/20 00:01:19;;;;;;;52.92;29.90;;;10.10;78.20;;;;;;5118086;28;20702;-82
2021/04/20 00:03:45;;;;;;;49.23;30.00;;;;;;;;;;5119126;28;20264;-82
2021/04/20 00:06:11;;;;;;;53.28;29.00;;;10.20;78.50;;;;;;5125897;28;20210;-83
2021/04/20 00:08:37;;;;;;;59.50;30.30;;;;;;;;;;5116264;28;20187;-82
2021/04/20 00:11:04;;;;;;;51.50;28.67;;;;;;;;;;5117446;28;20250;-83
2021/04/20 00:13:30;;;;;;;53.40;30.25;;;10.30;78.40;;;;;;5099333;28;20187;-82
2021/04/20 00:15:56;;;;;;;55.03;29.65;;;10.30;79.10;;;;;;5097135;28;20734;-82
2021/04/20 00:18:21;;;;;;;60.30;32.93;;;10.10;78.60;;;;;;5096491;28;20215;-83
2021/04/20 00:20:47;;;;;;;60.57;31.93;;;10.20;78.50;;;;;;5096169;28;20429;-83
2021/04/20 00:23:13;;;;;;;58.57;31.30;;;10.00;79.20;;;;;;5097024;28;20222;-83
2021/04/20 00:25:39;;;;;;;59.03;34.13;;;;;;;;;;5096353;28;20624;-83
2021/04/20 00:28:06;;;;;;;69.55;34.90;;;9.80;79.40;;;;;;5094278;28;20422;-82
2021/04/20 00:30:32;;;;;;;63.67;34.50;;;;;;;;;;5093493;28;20291;-83
2021/04/20 00:32:58;;;;;;;54.38;32.88;;;9.80;79.90;;;;;;5094797;28;20277;-83
2021/04/20 00:35:24;;;;;;;60.97;33.33;;;9.80;80.50;;;;;;5098421;28;20180;-83
2021/04/20 00:37:50;;;;;;;61.20;35.17;;;10.20;79.40;;;;;;5097226;28;20651;-82
2021/04/20 00:40:18;;;;;;;58.60;31.97;;;10.20;79.80;;;;;;5097557;28;20225;-82
2021/04/20 00:42:52;;;;;;;57.75;32.50;;;10.20;79.00;;;;;;5095731;28;20430;-81
2021/04/20 00:45:30;;;;;;;70.55;34.28;;;10.00;79.20;;;;;;5096698;28;20255;-82
2021/04/20 00:47:56;;;;;;;60.78;31.88;;;9.70;79.60;;;;;;5099148;28;20178;-83
2021/04/20 00:50:31;;;;;;;62.03;34.50;;;9.60;80.20;;;;;;5098187;28;20226;-83
2021/04/20 00:52:56;;;;;;;56.90;33.60;;;9.60;80.70;;;;;;5098340;28;20191;-83
2021/04/20 00:55:22;;;;;;;57.70;32.43;;;9.90;80.40;;;;;;5098367;28;20186;-83
2021/04/20 00:57:48;;;;;;;60.23;33.27;;;9.90;80.00;;;;;;5100376;28;20183;-82
2021/04/20 01:00:23;;;;;;;58.28;32.97;;;10.00;79.90;;;;;;5099700;28;20452;-82
2021/04/20 01:02:49;;;;;;;66.53;34.03;;;10.10;79.50;;;;;;5098314;28;20282;-82
2021/04/20 01:05:19;;;;;;;63.22;32.90;;;9.90;78.70;;;;;;5107911;28;20168;-82
2021/04/20 01:07:45;;;;;;;57.08;32.60;;;9.90;78.70;;;;;;5100990;28;20183;-82
2021/04/20 01:10:13;;;;;;;69.05;33.20;;;9.70;79.20;;;;;;5100220;28;20179;-83
2021/04/20 01:12:40;;;;;;;67.07;31.75;;;9.80;79.30;;;;;;5113133;28;20206;-83
2021/04/20 01:15:09;;;;;;;71.68;36.00;;;9.80;79.30;;;;;;5120112;28;20523;-82
2021/04/20 01:17:35;;;;;;;58.08;32.83;;;10.00;79.70;;;;;;5118235;28;20183;-82
2021/04/20 01:20:05;;;;;;;64.35;33.22;;;10.00;79.40;;;;;;5119397;28;20586;-82
2021/04/20 01:22:36;;;;;;;66.78;32.97;;;9.80;79.00;;;;;;5118008;28;20673;-82
2021/04/20 01:25:04;;;;;;;63.15;32.20;;;9.50;79.20;;;;;;5120731;28;20237;-82
2021/04/20 01:27:30;;;;;;;59.35;31.77;;;9.80;79.30;;;;;;5119993;28;20619;-82
2021/04/20 01:29:56;;;;;;;62.17;33.80;;;9.80;79.00;;;;;;5119475;28;20286;-82
2021/04/20 01:32:24;;;;;;;73.22;34.42;;;9.70;79.10;;;;;;5124880;28;20441;-82
2021/04/20 01:34:50;;;;;;;65.35;33.63;;;9.80;79.80;;;;;;5134383;28;20182;-82
2021/04/20 01:37:16;;;;;;;55.95;32.72;;;9.80;79.30;;;;;;5121674;28;20193;-82
2021/04/20 01:39:46;;;;;;;65.72;34.25;;;9.60;79.50;;;;;;5120801;28;20187;-83
2021/04/20 01:42:13;;;;;;;69.18;36.13;;;9.40;79.70;;;;;;5121907;28;20191;-83
2021/04/20 01:44:40;;;;;;;67.88;33.97;;;9.40;80.10;;;;;;5121644;28;20171;-83
2021/04/20 01:47:07;;;;;;;59.88;34.58;;;9.50;80.20;;;;;;5119441;28;20286;-83
2021/04/20 01:49:33;;;;;;;64.25;34.95;;;9.60;79.70;;;;;;5119729;28;20245;-83
2021/04/20 01:51:59;;;;;;;65.53;34.22;;;9.70;79.60;;;;;;5108982;28;20191;-83
2021/04/20 01:54:25;;;;;;;60.23;34.80;;;9.80;80.00;;;;;;5111264;28;20212;-83
2021/04/20 01:56:54;;;;;;;71.25;35.58;;;9.90;79.00;;;;;;5113488;28;20532;-83
2021/04/20 01:59:21;;;;;;;76.93;36.75;;;10.00;77.80;;;;;;5109365;28;20194;-83
2021/04/20 02:01:47;;;;;;;62.00;32.47;;;;;;;;;;5096205;28;20202;-82
2021/04/20 02:04:13;;;;;;;65.60;35.80;;;;;;;;;;5105910;28;20183;-81
2021/04/20 02:06:40;;;;;;;63.40;34.35;;;;;;;;;;5107501;28;20199;-83
2021/04/20 02:09:06;;;;;;;74.10;35.80;;;9.90;77.10;;;;;;5104139;28;20179;-82
2021/04/20 02:11:32;;;;;;;66.07;33.45;;;9.50;78.10;;;;;;5106749;28;20208;-83
2021/04/20 02:13:59;;;;;;;65.10;33.20;;;;;;;;;;5132560;28;20175;-83
2021/04/20 02:16:25;;;;;;;68.80;32.63;;;9.30;78.90;;;;;;5130616;28;20246;-82
2021/04/20 02:18:54;;;;;;;66.00;35.80;;;9.20;79.60;;;;;;5124962;28;20179;-83
2021/04/20 02:21:21;;;;;;;68.40;33.72;;;;;;;;;;5125040;28;20183;-83
2021/04/20 02:23:48;;;;;;;63.95;35.67;;;9.50;80.00;;;;;;5118966;28;20545;-82
2021/04/20 02:26:20;;;;;;;63.80;32.80;;;;;;;;;;5117995;28;20206;-82
2021/04/20 02:28:46;;;;;;;59.65;31.90;;;;;;;;;;5119136;28;20633;-82
2021/04/20 02:31:12;;;;;;;59.33;32.65;;;9.80;77.10;;;;;;5117477;28;20213;-82
2021/04/20 02:33:38;;;;;;;57.40;30.87;;;9.80;77.00;;;;;;5118314;28;20191;-82
2021/04/20 02:36:05;;;;;;;60.30;30.03;;;9.60;77.10;;;;;;5119790;28;20500;-82
2021/04/20 02:38:31;;;;;;;53.90;30.75;;;9.60;77.60;;;;;;5121344;28;20405;-82
2021/04/20 02:40:59;;;;;;;63.92;32.13;;;9.60;77.60;;;;;;5119226;28;20654;-82
2021/04/20 02:43:26;;;;;;;64.47;32.58;;;10.80;80.50;;;;;;5117892;28;20326;-84
2021/04/20 02:45:53;;;;;;;64.63;33.58;;;9.80;77.30;;;;;;5118632;28;20248;-82
2021/04/20 02:48:19;;;;;;;57.42;31.42;;;;;;;;;;5117513;28;20167;-82
2021/04/20 02:50:46;;;;;;;60.63;32.42;;;9.70;77.70;;;;;;5118410;28;20203;-83
2021/04/20 02:53:15;;;;;;;62.97;32.30;;;9.70;77.70;;;;;;5117622;28;20252;-83
2021/04/20 02:55:42;;;;;;;71.18;34.33;;;9.70;77.80;;;;;;5117274;28;20190;-82
2021/04/20 02:58:13;;;;;;;67.75;33.50;;;;;;;;;;5116658;28;20503;-82
2021/04/20 03:00:43;;;;;;;62.33;32.35;;;9.60;77.30;;;;;;5115645;28;20175;-83
2021/04/20 03:03:10;;;;;;;61.05;33.53;;;;;;;;;;5122437;28;20206;-83
2021/04/20 03:05:36;;;;;;;64.97;35.00;;;9.40;77.70;;;;;;5120138;28;20235;-82
2021/04/20 03:08:02;;;;;;;67.88;34.50;;;9.10;79.20;;;;;;5122184;28;20239;-82
2021/04/20 03:10:30;;;;;;;79.23;36.37;;;8.90;79.80;;;;;;5122219;28;20266;-82
2021/04/20 03:12:56;;;;;;;65.75;37.30;;;8.70;80.70;;;;;;5108749;28;20430;-81
2021/04/20 03:15:23;;;;;;;66.97;34.23;;;8.60;81.10;;;;;;5104990;28;20199;-82
2021/04/20 03:17:49;;;;;;;72.07;37.08;;;8.70;81.40;;;;;;5103583;28;20421;-82
2021/04/20 03:20:19;;;;;;;78.63;37.63;;;8.70;81.60;;;;;;5102554;28;20175;-82
2021/04/20 03:22:46;;;;;;;74.60;40.53;;;8.70;81.90;;;;;;5100174;28;20536;-81
2021/04/20 03:25:20;;;;;;;76.13;37.03;;;8.70;82.10;;;;;;5094199;28;20184;-81
2021/04/20 03:27:48;;;;;;;77.40;37.47;;;8.60;82.10;;;;;;5096621;28;20180;-82
2021/04/20 03:30:16;;;;;;;76.38;40.55;;;8.70;82.30;;;;;;5099969;28;20168;-81
2021/04/20 03:33:15;;;;;;;72.97;38.35;;;8.90;82.30;;;;;;5097750;28;20196;-82
2021/04/20 03:36:07;;;;;;;76.95;36.40;;;9.10;81.60;;;;;;5072263;28;20190;-81
2021/04/20 03:38:45;;;;;;;69.68;36.63;;;9.20;80.90;;;;;;5098007;28;20182;-82
2021/04/20 03:41:15;;;;;;;78.03;35.70;;;9.20;80.50;;;;;;5098217;28;20199;-82
2021/04/20 03:43:46;;;;;;;66.82;37.20;;;9.20;80.00;;;;;;5098989;28;20210;-81
2021/04/20 03:46:20;;;;;;;63.85;35.65;;;9.20;79.90;;;;;;5098717;28;20249;-82
2021/04/20 03:49:07;;;;;;;68.28;34.10;;;9.30;79.50;;;;;;5098884;28;20189;-82
2021/04/20 03:51:34;;;;;;;74.30;34.47;;;9.30;79.30;;;;;;5098556;28;20191;-82
2021/04/20 03:54:07;;;;;;;65.57;35.42;;;9.20;79.00;;;;;;5100520;28;20223;-82
2021/04/20 03:56:33;;;;;;;60.03;33.53;;;9.20;79.00;;;;;;5100295;28;20235;-82
2021/04/20 03:59:06;;;;;;;76.05;36.28;;;9.40;78.40;;;;;;5081785;28;20654;-82
2021/04/20 04:01:41;;;;;;;60.08;32.92;;;9.60;77.70;;;;;;5102532;28;20187;-83
2021/04/20 04:04:08;;;;;;;59.92;30.65;;;;;;;;;;5105918;28;20225;-83
2021/04/20 04:06:39;;;;;;;51.35;29.17;;;9.30;76.70;;;;;;5100970;28;20256;-82
2021/04/20 04:09:06;;;;;;;61.15;33.83;;;9.30;76.90;;;;;;5100910;28;20661;-83
2021/04/20 04:11:39;;;;;;;72.88;36.40;;;9.30;77.10;;;;;;5104194;28;20183;-82
2021/04/20 04:14:06;;;;;;;63.25;33.50;;;;;;;;;;5119525;28;20250;-82
2021/04/20 04:16:33;;;;;;;72.65;35.42;;;9.50;76.80;;;;;;5119517;28;20281;-82
2021/04/20 04:19:00;;;;;;;66.65;33.60;;;9.20;77.00;;;;;;5121494;28;20179;-82
2021/04/20 04:21:40;;;;;;;61.35;34.63;;;9.20;76.90;;;;;;5122026;28;20171;-82
2021/04/20 04:24:09;;;;;;;62.53;32.83;;;9.20;77.80;;;;;;5123883;28;20162;-82
2021/04/20 04:26:36;;;;;;;57.83;32.78;;;9.20;77.70;;;;;;5122095;28;20301;-82
2021/04/20 04:29:04;;;;;;;63.65;32.20;;;9.30;76.80;;;;;;5122785;28;20189;-83
2021/04/20 04:31:35;;;;;;;63.75;33.13;;;9.20;76.90;;;;;;5122033;28;20179;-82
2021/04/20 04:34:03;;;;;;;56.47;31.38;;;9.00;77.10;;;;;;5122722;28;20235;-82
2021/04/20 04:36:29;;;;;;;62.72;32.33;;;;;;;;;;5122520;28;20617;-83
2021/04/20 04:38:55;;;;;;;61.22;32.97;;;8.60;78.70;;;;;;5121426;28;20497;-82
2021/04/20 04:41:21;;;;;;;69.43;35.10;;;8.50;78.90;;;;;;5122677;28;20190;-83
2021/04/20 04:43:49;;;;;;;58.78;34.83;;;8.40;80.90;;;;;;5124184;28;20176;-83
2021/04/20 04:46:16;;;;;;;63.75;34.92;;;8.40;80.40;;;;;;5126502;28;20217;-83
2021/04/20 04:48:42;;;;;;;79.10;34.67;;;8.50;80.80;;;;;;5123026;28;20179;-82
2021/04/20 04:51:10;;;;;;;75.05;36.28;;;8.40;80.70;;;;;;5119557;28;20194;-82
2021/04/20 04:53:40;;;;;;;82.40;36.75;;;;;;;;;;5118053;28;20198;-82
2021/04/20 04:56:07;;;;;;;61.33;34.38;;;8.80;80.80;;;;;;5120271;28;20182;-82
2021/04/20 04:58:36;;;;;;;71.85;37.75;;;8.90;80.50;;;;;;5119562;28;20541;-82
2021/04/20 05:01:03;;;;;;;63.00;35.42;;;9.10;80.60;;;;;;5125321;28;20342;-82
2021/04/20 05:03:29;;;;;;;65.60;34.55;;;9.30;79.40;;;;;;5122077;28;20202;-82
2021/04/20 05:05:59;;;;;;;75.88;34.42;;;9.20;78.90;;;;;;5121181;28;20218;-82
2021/04/20 05:08:26;;;;;;;64.75;34.00;;;9.40;78.40;;;;;;5126179;28;20171;-82
2021/04/20 05:10:52;;;;;;;73.05;35.33;;;9.30;78.10;;;;;;5133248;28;20174;-82
2021/04/20 05:13:18;;;;;;;59.92;33.60;;;9.50;77.50;;;;;;5106707;28;20199;-81
2021/04/20 05:15:44;;;;;;;70.30;35.17;;;9.60;77.10;;;;;;5096849;28;20182;-81
2021/04/20 05:18:11;;;;;;;57.85;34.33;;;9.70;76.30;;;;;;5099404;28;20207;-81
2021/04/20 05:20:46;;;;;;;59.55;31.27;;;9.80;76.70;;;;;;5097250;28;20187;-82
2021/04/20 05:23:16;;;;;;;56.42;30.88;;;9.90;76.10;;;;;;5099010;28;20199;-82
2021/04/20 05:25:44;;;;;;;57.85;30.77;;;10.00;75.40;;;;;;5100816;28;20203;-82
2021/04/20 05:28:09;;;;;;;64.53;34.25;;;10.40;74.40;;;;;;5101630;28;20191;-82
2021/04/20 05:30:36;;;;;;;58.87;31.40;;;10.70;73.40;;;;;;5101622;28;20187;-83
2021/04/20 05:33:03;;;;;;;48.53;27.25;;;;;;;;;;5095816;28;20436;-83
2021/04/20 05:35:29;;;;;;;57.72;29.58;;;;;;;;;;5096261;28;20168;-82
2021/04/20 05:37:55;;;;;;;48.33;29.73;;;11.60;71.10;;;;;;5096435;28;20176;-82
2021/04/20 05:40:23;;;;;;;51.88;29.48;;;12.00;70.10;;;;;;5100333;28;20180;-82
2021/04/20 05:42:52;;;;;;;40.45;25.73;;;;;;;;;;5102946;28;20191;-82
2021/04/20 05:45:18;;;;;;;45.08;26.73;;;12.40;68.20;;;;;;5102622;28;20185;-83
2021/04/20 05:47:45;;;;;;;46.92;27.10;;;12.80;67.70;;;;;;5108404;28;20218;-83
2021/04/20 05:50:17;;;;;;;48.08;29.80;;;13.20;66.80;;;;;;5112213;28;20188;-83
2021/04/20 05:52:43;;;;;;;47.67;30.10;;;13.60;66.00;;;;;;5107253;28;20538;-83
2021/04/20 05:55:09;;;;;;;59.55;30.27;;;13.90;64.80;;;;;;5113663;28;20188;-83
2021/04/20 05:57:36;;;;;;;51.03;30.17;;;14.30;63.40;;;;;;5107307;28;20172;-82
2021/04/20 06:00:04;;;;;;;49.60;32.03;;;14.20;62.00;;;;;;5110410;28;20256;-82
2021/04/20 06:02:32;;;;;;;49.30;31.38;;;14.80;61.70;;;;;;5113843;28;20188;-83
2021/04/20 06:05:10;;;;;;;48.75;31.17;;;15.50;60.70;;;;;;5112293;28;20184;-83
2021/04/20 06:07:40;;;;;;;51.95;33.65;;;16.30;59.20;;;;;;5112498;28;20229;-83
2021/04/20 06:10:08;;;;;;;57.05;34.35;;;17.00;57.20;;;;;;5113295;28;20183;-83
2021/04/20 06:12:36;;;;;;;44.60;30.15;;;17.60;54.80;;;;;;5110382;28;20256;-83
2021/04/20 06:15:03;;;;;;;50.22;32.50;;;18.00;51.50;;;;;;5111846;28;20244;-84
2021/04/20 06:17:29;;;;;;;43.42;30.20;;;18.40;49.90;;;;;;5105367;28;20195;-84
2021/04/20 06:19:56;;;;;;;44.80;32.37;;;18.60;49.20;;;;;;5101118;28;20172;-84
2021/04/20 06:22:23;;;;;;;46.50;33.20;;;18.80;48.60;;;;;;5100096;28;20449;-84
2021/04/20 06:24:55;;;;;;;50.15;34.78;;;19.00;48.00;;;;;;5102773;28;20215;-83
2021/04/20 06:27:21;;;;;;;54.85;35.47;;;19.00;46.90;;;;;;5110882;28;20207;-84
2021/04/20 06:29:46;;;;;;;46.63;32.63;;;19.10;46.90;;;;;;5110652;28;20184;-84
2021/04/20 06:32:12;;;;;;;47.47;31.67;;;19.00;46.10;;;;;;5109636;28;20204;-83
2021/04/20 06:34:38;;;;;;;59.73;39.63;;;19.00;46.90;;;;;;5109331;28;20172;-82
2021/04/20 06:37:06;;;;;;;51.20;32.90;;;19.00;46.10;;;;;;5113111;28;20478;-84
2021/04/20 06:39:33;;;;;;;61.28;40.30;;;18.70;47.20;;;;;;5112356;28;20218;-85
2021/04/20 06:42:00;;;;;;;65.28;42.05;;;18.60;47.50;;;;;;5108313;28;20207;-86
2021/04/20 06:44:39;;;;;;;68.63;37.63;;;18.60;47.80;;;;;;5108331;28;20243;-86
2021/04/20 06:47:24;;;;;;;66.47;43.42;;;19.20;47.60;;;;;;5114029;28;20211;-85
2021/04/20 06:50:01;;;;;;;63.40;39.50;;;19.10;47.10;;;;;;5129659;28;20179;-84
2021/04/20 06:52:31;;;;;;;60.80;38.88;;;19.50;46.40;;;;;;5136767;28;20214;-86
2021/04/20 06:55:10;;;;;;;59.33;40.78;;;19.90;45.20;;;;;;5116413;28;20239;-87
2021/04/20 06:57:55;;;;;;;64.13;39.70;;;20.30;44.70;;;;;;5114369;28;20199;-86
2021/04/20 07:00:25;;;;;;;68.85;43.78;;;20.60;44.20;;;;;;5114174;28;20156;-84
2021/04/20 07:02:58;;;;;;;67.40;45.70;;;20.00;43.00;;;;;;5113391;28;20195;-86
2021/04/20 07:05:32;;;;;;;69.35;44.13;;;19.50;45.20;;;;;;5113451;28;20199;-87
2021/04/20 07:08:16;;;;;;;62.97;40.47;;;19.10;47.30;;;;;;5109703;28;20188;-87
2021/04/20 07:10:43;;;;;;;52.30;35.17;;;19.10;48.20;;;;;;5112710;28;20156;-87
2021/04/20 07:13:17;;;;;;;62.75;38.38;;;19.00;48.60;;;;;;5136288;28;20215;-86
2021/04/20 07:16:04;;;;;;;57.83;37.00;;;18.70;49.30;;;;;;5139701;28;20166;-87
2021/04/20 07:18:39;;;;;;;64.60;38.17;;;18.20;49.90;;;;;;5129587;28;20165;-85
2021/04/20 07:21:38;;;;;;;65.88;43.60;;;17.80;50.70;;;;;;5112101;28;20191;-86
2021/04/20 07:24:22;;;;;;;68.38;42.45;;;17.00;52.50;;;;;;5117348;28;20163;-86
2021/04/20 07:27:06;;;;;;;71.97;42.92;;;16.70;53.90;;;;;;5117670;28;20188;-86
2021/04/20 07:29:43;;;;;;;79.80;47.63;;;16.60;55.20;;;;;;5116787;28;20223;-85
2021/04/20 07:32:23;;;;;;;85.93;50.03;;;15.80;57.00;;;;;;5116376;28;20199;-85
2021/04/20 07:35:08;;;;;;;88.88;47.80;;;15.50;58.90;;;;;;5116773;28;20160;-89
2021/04/20 07:38:02;;;;;;;96.00;49.90;;;15.20;59.90;;;;;;5114047;28;20183;-86
2021/04/20 07:40:46;;;;;;;96.45;54.00;;;14.90;61.00;;;;;;5115024;28;20163;-86
2021/04/20 07:43:41;;;;;;;87.22;51.38;;;14.70;62.20;;;;;;5117730;28;20206;-85
2021/04/20 07:46:22;;;;;;;88.90;48.10;;;14.40;63.10;;;;;;5095791;28;20196;-85
2021/04/20 07:48:57;;;;;;;91.60;52.05;;;14.30;64.20;;;;;;5116015;28;20167;-85
2021/04/20 07:52:01;;;;;;;86.75;50.50;;;14.50;64.40;;;;;;5117726;28;20182;-85
2021/04/20 07:54:46;;;;;;;82.80;48.88;;;14.60;64.10;;;;;;5090313;28;20192;-85
2021/04/20 07:57:26;;;;;;;84.82;50.65;;;14.80;63.70;;;;;;5097931;28;20164;-85
2021/04/20 07:59:51;;;;;;;89.93;51.38;;;14.90;63.50;;;;;;5098110;28;20172;-84
2021/04/20 08:02:39;;;;;;;96.50;52.87;;;15.00;62.80;;;;;;5097709;28;20205;-84
2021/04/20 08:05:14;;;;;;;88.68;53.10;;;14.80;63.00;;;;;;5108875;28;20163;-89
2021/04/20 08:07:43;;;;;;;86.05;48.60;;;14.30;63.80;;;;;;5117706;28;20202;-84
2021/04/20 08:10:11;;;;;;;89.45;51.00;;;14.30;64.80;;;;;;5115722;28;20243;-87
2021/04/20 08:12:55;;;;;;;90.00;52.13;;;14.70;64.60;;;;;;5117232;28;20196;-86
2021/04/20 08:15:30;;;;;;;90.78;52.30;;;14.70;64.30;;;;;;5118394;28;20631;-89
2021/04/20 08:18:03;;;;;;;92.38;50.13;;;14.20;65.10;;;;;;5110108;28;20171;-85
2021/04/20 08:20:31;;;;;;;100.03;54.30;;;14.20;65.80;;;;;;5104403;28;20658;-87
2021/04/20 08:22:59;;;;;;;101.85;55.40;;;14.40;66.10;;;;;;5101778;28;20290;-86
2021/04/20 08:25:31;;;;;;;93.70;52.63;;;14.20;65.40;;;;;;5103219;28;20186;-85
2021/04/20 08:28:18;;;;;;;103.82;55.53;;;13.70;66.70;;;;;;5102196;28;20505;-88
2021/04/20 08:30:49;;;;;;;98.00;53.85;;;13.70;67.70;;;;;;5100947;28;20218;-86
2021/04/20 08:33:18;;;;;;;99.18;55.35;;;14.10;67.10;;;;;;5101737;28;20254;-84
2021/04/20 08:35:49;;;;;;;91.72;50.33;;;14.40;66.30;;;;;;5101395;28;20179;-85
2021/04/20 08:38:40;;;;;;;101.43;54.72;;;14.60;65.70;;;;;;5102124;28;20650;-86
2021/04/20 08:41:18;;;;;;;92.28;51.75;;;14.50;65.10;;;;;;5101704;28;20674;-89
2021/04/20 08:43:56;;;;;;;93.55;51.20;;;14.90;64.20;;;;;;5101562;28;20179;-86
2021/04/20 08:46:31;;;;;;;86.70;47.33;;;14.40;63.90;;;;;;5103955;28;20280;-88
2021/04/20 08:49:17;;;;;;;94.25;48.40;;;14.60;63.30;;;;;;5105716;28;20220;-87
2021/04/20 08:52:02;;;;;;;91.75;53.47;;;14.80;63.00;;;;;;5100152;28;20215;-89
2021/04/20 08:55:06;;;;;;;89.78;51.47;;;14.60;62.60;;;;;;5100292;28;20268;-85
2021/04/20 08:58:09;;;;;;;93.60;49.90;;;14.60;63.40;;;;;;5059344;28;20187;-88
2021/04/20 09:01:12;;;;;;;86.45;51.00;;;14.70;63.00;;;;;;5101134;28;20176;-88
2021/04/20 09:03:52;;;;;;;86.07;47.38;;;15.00;62.40;;;;;;5097619;28;20195;-85
2021/04/20 09:06:38;;;;;;;86.53;48.85;;;15.00;61.70;;;;;;5096747;28;20203;-87
2021/04/20 09:09:06;;;;;;;84.47;47.28;;;15.10;62.10;;;;;;5101520;28;20172;-83
2021/04/20 09:11:38;;;;;;;83.18;47.22;;;15.00;61.10;;;;;;5103630;28;20213;-84
2021/04/20 09:14:16;;;;;;;78.78;48.10;;;15.10;61.30;;;;;;5126117;28;20170;-84
2021/04/20 09:17:08;;;;;;;79.72;45.85;;;14.90;60.80;;;;;;5127219;28;20178;-86
2021/04/20 09:20:00;;;;;;;81.25;47.83;;;14.70;61.40;;;;;;5124722;27;20177;-86
2021/04/20 09:22:45;;;;;;;83.78;47.20;;;14.80;61.70;;;;;;5114431;27;20198;-84
2021/04/20 09:25:30;;;;;;;73.97;41.92;;;14.70;61.20;;;;;;5124251;28;20182;-84
2021/04/20 09:28:01;;;;;;;78.82;43.13;;;15.10;60.60;;;;;;5126890;28;20209;-84
2021/04/20 09:30:33;;;;;;;81.85;44.05;;;15.30;59.90;;;;;;5128402;27;20167;-84
2021/04/20 09:33:06;;;;;;;69.53;43.20;;;15.50;59.50;;;;;;5139242;28;20218;-86
2021/04/20 09:35:33;;;;;;;70.80;39.17;;;15.60;58.50;;;;;;5144129;28;20239;-86
2021/04/20 09:38:00;;;;;;;76.18;44.53;;;16.00;57.90;;;;;;5143632;28;20229;-85
2021/04/20 09:40:27;;;;;;;74.80;42.17;;;15.70;57.70;;;;;;5144244;27;20170;-83
2021/04/20 09:42:57;;;;;;;72.30;41.58;;;15.80;57.60;;;;;;5128931;28;20267;-82
2021/04/20 09:45:34;;;;;;;64.45;39.00;;;15.60;57.50;;;;;;5123350;28;20167;-87
2021/04/20 09:48:19;;;;;;;59.72;36.67;;;15.50;57.20;;;;;;5121619;28;20262;-83
2021/04/20 09:51:02;;;;;;;63.30;36.60;;;15.90;57.10;;;;;;5105486;28;20191;-83
2021/04/20 09:53:37;;;;;;;65.70;39.20;;;15.70;56.60;;;;;;5103855;28;20204;-85
2021/04/20 09:56:12;;;;;;;49.13;31.02;;;15.70;56.90;;;;;;5105112;28;20193;-85
2021/04/20 09:58:42;;;;;;;52.20;30.45;;;15.70;55.00;;;;;;5106698;28;20175;-85
2021/04/20 10:01:37;;;;;;;56.50;33.33;;;15.90;54.00;;;;;;5105420;28;20211;-85
2021/04/20 10:04:09;;;;;;;57.65;34.25;;;16.00;54.00;;;;;;5097511;28;20728;-84
2021/04/20 10:06:39;;;;;;;54.75;35.58;;;15.80;53.90;;;;;;5104776;28;20247;-85
2021/04/20 10:09:08;;;;;;;68.45;38.03;;;15.80;54.60;;;;;;5104407;28;20184;-86
2021/04/20 10:11:45;;;;;;;66.45;38.15;;;16.10;54.90;;;;;;5108048;28;20194;-85
2021/04/20 10:14:28;;;;;;;59.60;37.15;;;16.40;54.30;;;;;;5125402;28;20163;-85
2021/04/20 10:17:17;;;;;;;56.88;33.78;;;16.40;53.20;;;;;;5126014;27;20177;-85
2021/04/20 10:20:14;;;;;;;46.17;27.98;;;16.20;51.80;;;;;;5124728;28;20654;-85
2021/04/20 10:23:12;;;;;;;50.58;29.85;;;16.30;52.00;;;;;;5125053;28;20214;-85
2021/04/20 10:25:50;;;;;;;41.20;25.50;;;16.30;52.10;;;;;;5121696;28;20183;-85
2021/04/20 10:28:31;;;;;;;50.70;31.25;;;16.30;50.80;;;;;;5121206;27;20563;-85
2021/04/20 10:31:06;;;;;;;55.65;33.13;;;16.20;50.10;;;;;;5121634;28;20163;-85
2021/04/20 10:33:33;;;;;;;70.65;36.25;;;16.40;51.50;;;;;;5122656;28;20614;-85
2021/04/20 10:36:01;;;;;;;51.40;32.63;;;16.20;52.70;;;;;;5121916;28;20186;-85
2021/04/20 10:38:34;;;;;;;52.50;31.60;;;16.30;52.90;;;;;;5121883;28;20243;-85
2021/04/20 10:41:02;;;;;;;49.92;33.47;;;16.10;53.00;;;;;;5121538;28;20171;-85
2021/04/20 10:43:31;;;;;;;52.25;30.55;;;16.20;52.50;;;;;;5081789;28;20224;-85
2021/04/20 10:46:07;;;;;;;54.45;31.52;;;16.30;52.00;;;;;;5081373;28;20280;-85
2021/04/20 10:48:33;;;;;;;49.72;30.38;;;16.30;51.60;;;;;;5081828;28;20273;-85
2021/04/20 10:50:59;;;;;;;46.07;30.27;;;16.70;50.80;;;;;;5081851;28;20188;-84
2021/04/20 10:53:30;;;;;;;50.10;29.17;;;17.00;50.20;;;;;;5083461;28;20513;-86
2021/04/20 10:56:11;;;;;;;50.88;31.85;;;17.60;50.50;;;;;;5080865;28;20199;-86
2021/04/20 10:58:45;;;;;;;48.22;30.88;;;17.60;50.30;;;;;;5080630;28;20527;-85
2021/04/20 11:01:15;;;;;;;48.30;30.65;;;17.50;49.90;;;;;;5081485;28;20511;-85
2021/04/20 11:03:42;;;;;;;53.00;29.75;;;17.80;48.40;;;;;;5088082;28;20208;-85
2021/04/20 11:06:35;;;;;;;47.97;29.08;;;17.60;47.50;;;;;;5081787;28;20620;-85
2021/04/20 11:09:01;;;;;;;45.25;28.80;;;18.20;47.20;;;;;;5052460;28;20212;-85
2021/04/20 11:11:27;;;;;;;41.67;27.00;;;18.30;45.40;;;;;;5085602;28;20221;-85
2021/04/20 11:13:53;;;;;;;44.35;28.02;;;18.30;45.10;;;;;;5119507;28;20996;-85
2021/04/20 11:16:40;;;;;;;38.77;27.03;;;18.30;45.20;;;;;;5119934;28;20187;-86
2021/04/20 11:19:09;;;;;;;45.40;29.20;;;19.00;45.30;;;;;;5113423;28;20741;-85
2021/04/20 11:21:37;;;;;;;44.40;28.15;;;18.90;43.40;;;;;;5097213;28;20191;-85
2021/04/20 11:24:19;;;;;;;39.90;27.40;;;18.70;43.30;;;;;;5098027;28;20215;-85
2021/04/20 11:27:10;;;;;;;40.78;28.02;;;18.90;43.10;;;;;;5096377;28;20237;-85
2021/04/20 11:29:49;;;;;;;37.65;26.23;;;18.40;40.80;;;;;;5096616;28;20195;-85
2021/04/20 11:32:22;;;;;;;33.72;24.70;;;18.20;40.30;;;;;;5098179;28;20199;-85
2021/04/20 11:34:50;;;;;;;40.45;26.02;;;17.90;39.60;;;;;;5098857;28;20160;-85
2021/04/20 11:37:22;;;;;;;38.40;26.35;;;18.20;39.70;;;;;;5095928;28;20187;-85
2021/04/20 11:39:50;;;;;;;30.88;23.45;;;18.30;40.10;;;;;;5098444;28;20207;-85
2021/04/20 11:42:29;;;;;;;38.03;26.73;;;18.40;39.00;;;;;;5094915;28;20200;-86
2021/04/20 11:44:58;;;;;;;30.70;22.50;;;18.40;39.50;;;;;;5094763;28;20163;-85
2021/04/20 11:47:26;;;;;;;36.58;26.23;;;18.70;38.70;;;;;;5094143;28;20317;-86
2021/04/20 11:50:13;;;;;;;34.25;23.83;;;18.50;38.20;;;;;;5094129;28;20187;-85
2021/04/20 11:52:40;;;;;;;37.92;25.70;;;18.30;38.50;;;;;;5097955;28;20196;-85
2021/04/20 11:55:13;;;;;;;40.78;26.52;;;18.40;39.20;;;;;;5099706;28;20172;-86
2021/04/20 11:57:40;;;;;;;39.05;25.83;;;18.40;40.30;;;;;;5098288;28;20199;-85
2021/04/20 12:00:09;;;;;;;42.25;28.33;;;18.20;40.60;;;;;;5100272;28;20651;-85
2021/04/20 12:02:36;;;;;;;48.13;27.75;;;18.20;40.90;;;;;;5101775;28;20263;-85
2021/04/20 12:05:12;;;;;;;37.20;25.25;;;18.10;41.10;;;;;;5110607;28;20176;-85
2021/04/20 12:07:40;;;;;;;41.28;26.75;;;18.10;41.10;;;;;;5099002;28;20211;-85
2021/04/20 12:10:17;;;;;;;39.85;26.23;;;18.80;40.70;;;;;;5100126;28;20496;-86
2021/04/20 12:12:48;;;;;;;34.75;25.80;;;19.00;39.10;;;;;;5112013;28;20198;-86
2021/04/20 12:15:17;;;;;;;35.05;24.48;;;19.30;38.90;;;;;;5119762;28;20175;-85
2021/04/20 12:17:44;;;;;;;36.78;26.33;;;19.10;37.10;;;;;;5120671;28;20189;-85
2021/04/20 12:20:19;;;;;;;33.85;25.05;;;18.80;37.60;;;;;;5103655;28;20639;-85
2021/04/20 12:22:55;;;;;;;40.60;23.98;;;18.90;37.70;;;;;;5097900;28;20558;-85
2021/04/20 12:25:22;;;;;;;30.65;24.63;;;19.40;37.40;;;;;;5098762;28;20627;-86
2021/04/20 12:27:56;;;;;;;38.78;26.95;;;19.10;36.60;;;;;;5098617;28;20230;-86
2021/04/20 12:30:23;;;;;;;41.67;26.27;;;19.20;37.10;;;;;;5098525;28;20631;-86
2021/04/20 12:32:49;;;;;;;36.22;25.40;;;19.30;37.50;;;;;;5097094;28;20705;-85
2021/04/20 12:35:24;;;;;;;47.60;27.95;;;19.60;37.90;;;;;;5100132;28;20172;-85
2021/04/20 12:37:55;;;;;;;43.33;29.38;;;19.30;38.30;;;;;;5099636;28;20202;-85
2021/04/20 12:40:22;;;;;;;37.78;28.83;;;18.80;38.10;;;;;;5098806;28;20252;-85
2021/04/20 12:42:54;;;;;;;42.13;27.65;;;19.10;38.40;;;;;;5097776;28;20211;-85
2021/04/20 12:45:21;;;;;;;41.78;27.88;;;19.50;38.40;;;;;;5100099;28;20239;-85
2021/04/20 12:47:48;;;;;;;39.47;27.52;;;19.70;38.00;;;;;;5098934;28;20195;-86
2021/04/20 12:50:17;;;;;;;35.42;25.40;;;19.50;36.60;;;;;;5101804;28;20188;-85
2021/04/20 12:52:44;;;;;;;40.20;25.73;;;19.10;37.10;;;;;;5099637;28;20687;-86
2021/04/20 12:55:16;;;;;;;33.58;25.33;;;19.10;36.90;;;;;;5102526;28;20183;-86
2021/04/20 12:57:46;;;;;;;34.35;22.83;;;19.10;36.70;;;;;;5097571;28;20187;-85
2021/04/20 13:00:19;;;;;;;32.28;20.40;;;19.10;35.60;;;;;;5098520;28;20301;-86